createdAt,value
2019-04-29T00:02:31.124Z,5.52
2019-04-29T00:05:38.829Z,5.48
2019-04-29T00:08:46.349Z,5.36
2019-04-29T00:11:54.524Z,5.39
2019-04-29T00:15:13.396Z,5.30
2019-04-29T00:18:33.448Z,5.48
2019-04-29T00:21:41.279Z,5.36
2019-04-29T00:24:48.685Z,5.36
2019-04-29T00:27:56.076Z,5.40
2019-04-29T00:31:04.016Z,5.56
2019-04-29T00:34:11.354Z,5.60
2019-04-29T00:37:30.248Z,5.46
2019-04-29T00:41:00.284Z,5.40
2019-04-29T00:44:10.138Z,5.51
2019-04-29T00:47:18.059Z,5.57
2019-04-29T00:50:25.337Z,5.40
2019-04-29T00:53:33.616Z,5.30
2019-04-29T00:56:41.157Z,5.34
2019-04-29T00:59:48.811Z,5.44
2019-04-29T01:02:56.511Z,5.35
2019-04-29T01:06:04.297Z,5.33
2019-04-29T01:09:14.154Z,5.22
2019-04-29T01:12:22.009Z,5.39
2019-04-29T01:15:29.375Z,5.20
2019-04-29T01:18:37.155Z,5.14
2019-04-29T01:21:45.183Z,5.36
2019-04-29T01:24:52.871Z,5.21
2019-04-29T01:28:08.544Z,5.14
2019-04-29T01:31:20.770Z,5.26
2019-04-29T01:34:37.176Z,5.29
2019-04-29T01:37:44.583Z,5.23
2019-04-29T01:41:02.241Z,5.27
2019-04-29T01:44:09.917Z,5.15
2019-04-29T01:47:17.409Z,5.21
2019-04-29T01:50:25.407Z,5.26
2019-04-29T01:53:32.887Z,5.29
2019-04-29T01:56:40.512Z,5.30
2019-04-29T01:59:48.203Z,5.32
2019-04-29T02:02:55.597Z,5.30
2019-04-29T02:06:03.088Z,5.28
2019-04-29T02:09:17.108Z,5.21
2019-04-29T02:12:24.501Z,5.24
2019-04-29T02:15:31.928Z,5.27
2019-04-29T02:18:39.353Z,5.24
2019-04-29T02:22:06.182Z,5.36
2019-04-29T02:25:18.566Z,5.28
2019-04-29T02:28:26.187Z,5.32
2019-04-29T02:31:41.375Z,5.34
2019-04-29T02:34:48.958Z,5.05
2019-04-29T02:37:56.814Z,5.19
2019-04-29T02:41:14.169Z,5.21
2019-04-29T02:44:21.464Z,5.22
2019-04-29T02:47:29.068Z,5.11
2019-04-29T02:50:36.332Z,5.34
2019-04-29T02:53:43.973Z,5.30
2019-04-29T02:56:59.058Z,5.29
2019-04-29T03:00:25.975Z,5.10
2019-04-29T03:03:51.613Z,5.43
2019-04-29T03:06:59.691Z,5.19
2019-04-29T03:10:07.590Z,5.19
2019-04-29T03:13:15.342Z,5.30
2019-04-29T03:16:23.088Z,5.30
2019-04-29T03:19:34.958Z,5.20
2019-04-29T03:22:43.413Z,5.23
2019-04-29T03:25:51.214Z,4.99
2019-04-29T03:28:58.594Z,4.95
2019-04-29T03:32:06.189Z,4.91
2019-04-29T03:35:13.689Z,5.05
2019-04-29T03:38:21.450Z,5.01
2019-04-29T03:41:29.247Z,4.80
2019-04-29T03:44:36.868Z,4.92
2019-04-29T03:47:44.172Z,4.82
2019-04-29T03:50:51.785Z,4.68
2019-04-29T03:53:59.239Z,4.90
2019-04-29T03:57:08.232Z,4.79
2019-04-29T04:00:17.969Z,4.63
2019-04-29T04:03:32.907Z,4.50
2019-04-29T04:06:58.788Z,4.43
2019-04-29T04:10:09.845Z,4.44
2019-04-29T04:13:18.005Z,4.49
2019-04-29T04:16:32.889Z,4.43
2019-04-29T04:19:40.419Z,4.53
2019-04-29T04:22:48.324Z,4.48
2019-04-29T04:25:56.242Z,4.42
2019-04-29T04:29:03.882Z,4.41
2019-04-29T04:32:11.510Z,4.55
2019-04-29T04:35:19.732Z,4.73
2019-04-29T04:38:27.168Z,4.72
2019-04-29T04:41:35.456Z,4.76
2019-04-29T04:44:48.810Z,4.99
2019-04-29T04:47:56.168Z,4.95
2019-04-29T04:51:03.657Z,5.17
2019-04-29T04:54:11.751Z,5.08
2019-04-29T04:57:19.538Z,5.09
2019-04-29T05:00:29.075Z,5.32
2019-04-29T05:03:36.767Z,5.43
2019-04-29T05:07:19.666Z,5.57
2019-04-29T05:14:03.532Z,5.41
2019-04-29T05:17:10.932Z,5.62
2019-04-29T05:20:20.302Z,5.87
2019-04-29T05:23:28.007Z,6.23
2019-04-29T05:26:35.296Z,6.35
2019-04-29T05:29:42.677Z,6.53
2019-04-29T05:32:50.604Z,6.73
2019-04-29T05:36:04.530Z,6.93
2019-04-29T05:39:23.875Z,7.18
2019-04-29T05:42:31.285Z,7.57
2019-04-29T05:45:47.840Z,7.88
2019-04-29T05:48:55.846Z,7.80
2019-04-29T05:52:14.472Z,7.90
2019-04-29T05:55:21.863Z,7.77
2019-04-29T05:58:32.998Z,7.73
2019-04-29T06:01:42.747Z,7.75
2019-04-29T06:04:51.936Z,7.67
2019-04-29T06:08:01.157Z,7.71
2019-04-29T06:11:06.698Z,7.93
2019-04-29T06:14:14.511Z,7.97
2019-04-29T06:17:22.282Z,7.98
2019-04-29T06:20:29.836Z,7.95
2019-04-29T06:23:37.364Z,8.24
2019-04-29T06:26:45.239Z,8.31
2019-04-29T06:29:52.866Z,8.36
2019-04-29T06:33:00.538Z,8.03
2019-04-29T06:36:09.117Z,8.06
2019-04-29T06:39:17.580Z,8.13
2019-04-29T06:42:26.692Z,7.95
2019-04-29T06:45:34.126Z,7.98
2019-04-29T06:48:41.823Z,7.93
2019-04-29T06:51:49.960Z,7.90
2019-04-29T06:54:57.895Z,7.84
2019-04-29T06:58:05.391Z,7.66
2019-04-29T07:01:12.785Z,7.59
2019-04-29T07:04:20.479Z,7.62
2019-04-29T07:07:28.767Z,7.77
2019-04-29T07:10:36.263Z,7.57
2019-04-29T07:13:46.508Z,7.78
2019-04-29T07:16:52.884Z,8.01
2019-04-29T07:20:02.033Z,8.08
2019-04-29T07:23:09.914Z,8.45
2019-04-29T07:26:17.812Z,8.79
2019-04-29T07:29:30.547Z,8.41
2019-04-29T07:32:35.303Z,8.14
2019-04-29T07:35:47.736Z,8.01
2019-04-29T07:38:56.641Z,7.97
2019-04-29T07:42:03.414Z,8.06
2019-04-29T07:45:28.030Z,8.11
2019-04-29T07:48:36.820Z,7.83
2019-04-29T07:51:45.666Z,7.97
2019-04-29T07:54:56.036Z,8.68
2019-04-29T07:58:02.691Z,8.97
2019-04-29T08:01:11.357Z,9.22
2019-04-29T08:04:18.741Z,9.34
2019-04-29T08:07:26.490Z,9.04
2019-04-29T08:10:34.605Z,8.78
2019-04-29T08:13:44.444Z,8.62
2019-04-29T08:16:52.145Z,8.50
2019-04-29T08:20:00.647Z,8.64
2019-04-29T08:23:09.013Z,8.77
2019-04-29T08:26:17.513Z,8.58
2019-04-29T08:29:25.926Z,8.96
2019-04-29T08:32:36.514Z,9.32
2019-04-29T08:35:46.629Z,9.90
2019-04-29T08:38:53.390Z,10.18
2019-04-29T08:42:08.560Z,9.74
2019-04-29T08:45:22.662Z,9.87
2019-04-29T08:48:30.570Z,10.71
2019-04-29T08:51:38.370Z,10.91
2019-04-29T08:54:45.815Z,11.79
2019-04-29T08:57:53.927Z,11.96
2019-04-29T09:01:33.900Z,11.42
2019-04-29T09:04:52.970Z,10.99
2019-04-29T09:07:52.526Z,10.91
2019-04-29T09:10:58.979Z,11.22
2019-04-29T09:14:06.610Z,11.37
2019-04-29T09:17:20.609Z,11.63
2019-04-29T09:20:24.025Z,11.16
2019-04-29T09:23:33.765Z,11.02
2019-04-29T09:26:50.159Z,11.42
2019-04-29T09:29:58.817Z,11.52
2019-04-29T09:33:08.695Z,11.76
2019-04-29T09:36:16.877Z,11.10
2019-04-29T09:39:24.827Z,11.27
2019-04-29T09:42:45.435Z,11.25
2019-04-29T09:46:00.401Z,11.47
2019-04-29T09:49:08.680Z,11.51
2019-04-29T09:52:16.094Z,11.89
2019-04-29T09:55:24.177Z,11.83
2019-04-29T09:58:31.670Z,10.79
2019-04-29T10:01:46.021Z,10.46
2019-04-29T10:05:16.658Z,10.59
2019-04-29T10:08:24.285Z,10.98
2019-04-29T10:11:31.661Z,11.14
2019-04-29T10:14:39.163Z,10.89
2019-04-29T10:17:56.200Z,10.14
2019-04-29T10:21:07.347Z,9.90
2019-04-29T10:24:14.894Z,9.49
2019-04-29T10:27:22.797Z,9.31
2019-04-29T10:30:32.527Z,9.28
2019-04-29T10:33:40.317Z,9.81
2019-04-29T10:36:52.175Z,10.04
2019-04-29T10:40:20.818Z,10.80
2019-04-29T10:43:49.314Z,11.29
2019-04-29T10:47:14.970Z,10.83
2019-04-29T10:50:29.533Z,10.90
2019-04-29T10:53:36.932Z,10.72
2019-04-29T10:56:44.689Z,11.46
2019-04-29T11:00:00.937Z,11.59
2019-04-29T11:03:07.379Z,11.36
2019-04-29T11:06:16.301Z,11.23
2019-04-29T11:09:58.531Z,10.88
2019-04-29T11:13:06.455Z,10.99
2019-04-29T11:16:14.164Z,10.19
2019-04-29T11:19:21.789Z,9.47
2019-04-29T11:22:33.866Z,8.77
2019-04-29T11:25:58.284Z,7.91
2019-04-29T11:29:09.210Z,7.61
2019-04-29T11:32:29.201Z,7.84
2019-04-29T11:35:43.298Z,7.96
2019-04-29T11:38:51.099Z,8.03
2019-04-29T11:41:59.812Z,8.01
2019-04-29T11:45:09.016Z,7.69
2019-04-29T11:48:16.961Z,7.63
2019-04-29T11:51:34.185Z,7.59
2019-04-29T11:54:42.087Z,7.55
2019-04-29T11:57:54.897Z,7.56
2019-04-29T12:01:10.700Z,7.86
2019-04-29T12:04:33.419Z,8.27
2019-04-29T12:07:40.887Z,8.65
2019-04-29T12:11:05.680Z,9.19
2019-04-29T12:14:16.203Z,9.91
2019-04-29T12:17:28.383Z,10.12
2019-04-29T12:20:55.991Z,10.57
2019-04-29T12:24:06.211Z,10.48
2019-04-29T12:27:14.857Z,10.34
2019-04-29T12:30:29.817Z,10.04
2019-04-29T12:33:45.579Z,10.43
2019-04-29T12:36:56.619Z,10.28
2019-04-29T12:40:22.336Z,10.19
2019-04-29T12:43:40.810Z,9.52
2019-04-29T12:47:25.336Z,8.93
2019-04-29T12:50:21.659Z,8.88
2019-04-29T12:53:30.452Z,8.98
2019-04-29T12:56:43.128Z,9.03
2019-04-29T12:59:49.912Z,9.43
2019-04-29T13:03:20.286Z,9.45
2019-04-29T13:06:39.827Z,9.60
2019-04-29T13:09:49.640Z,9.52
2019-04-29T13:12:58.467Z,9.33
2019-04-29T13:16:20.202Z,9.04
2019-04-29T13:19:31.137Z,8.97
2019-04-29T13:22:39.332Z,8.60
2019-04-29T13:25:51.070Z,8.52
2019-04-29T13:29:01.422Z,8.65
2019-04-29T13:32:06.475Z,8.95
2019-04-29T13:35:14.748Z,9.52
2019-04-29T13:38:22.361Z,9.93
2019-04-29T13:41:30.049Z,10.27
2019-04-29T13:44:42.673Z,9.90
2019-04-29T13:48:07.575Z,9.16
2019-04-29T13:51:34.686Z,8.00
2019-04-29T13:54:30.743Z,7.77
2019-04-29T13:57:38.672Z,8.04
2019-04-29T14:01:01.945Z,7.98
2019-04-29T14:04:35.115Z,8.04
2019-04-29T14:07:42.585Z,8.54
2019-04-29T14:10:51.109Z,9.06
2019-04-29T14:14:00.349Z,8.72
2019-04-29T14:17:25.453Z,8.18
2019-04-29T14:20:19.551Z,8.03
2019-04-29T14:23:29.818Z,7.48
2019-04-29T14:26:41.929Z,7.08
2019-04-29T14:29:47.646Z,6.93
2019-04-29T14:33:01.710Z,7.09
2019-04-29T14:36:09.045Z,7.28
2019-04-29T14:39:22.145Z,7.59
2019-04-29T14:43:02.863Z,7.81
2019-04-29T14:46:46.359Z,8.26
2019-04-29T14:49:57.071Z,8.33
2019-04-29T14:53:04.516Z,8.53
2019-04-29T14:56:11.880Z,8.79
2019-04-29T14:59:20.388Z,8.72
2019-04-29T15:02:31.100Z,9.01
2019-04-29T15:05:38.654Z,9.21
2019-04-29T15:08:46.334Z,9.31
2019-04-29T15:12:17.223Z,9.20
2019-04-29T15:15:47.571Z,9.16
2019-04-29T15:19:14.766Z,8.85
2019-04-29T15:22:26.107Z,8.65
2019-04-29T15:25:33.795Z,8.70
2019-04-29T15:28:50.929Z,8.57
2019-04-29T15:31:58.852Z,8.60
2019-04-29T15:35:07.110Z,8.53
2019-04-29T15:38:15.327Z,8.40
2019-04-29T15:41:29.722Z,8.29
2019-04-29T15:44:33.253Z,8.18
2019-04-29T15:47:41.540Z,7.95
2019-04-29T15:50:50.343Z,7.94
2019-04-29T15:53:58.122Z,7.91
2019-04-29T15:57:09.151Z,7.94
2019-04-29T16:00:21.839Z,7.95
2019-04-29T16:03:25.520Z,8.02
2019-04-29T16:06:44.549Z,7.88
2019-04-29T16:10:22.360Z,7.73
2019-04-29T16:13:30.272Z,7.85
2019-04-29T16:16:38.371Z,7.82
2019-04-29T16:19:45.920Z,7.82
2019-04-29T16:22:54.187Z,8.06
2019-04-29T16:26:03.166Z,8.07
2019-04-29T16:29:51.564Z,8.04
2019-04-29T16:32:58.910Z,7.98
2019-04-29T16:36:06.576Z,7.96
2019-04-29T16:39:14.236Z,7.80
2019-04-29T16:42:31.464Z,7.72
2019-04-29T16:45:54.478Z,7.78
2019-04-29T16:49:02.287Z,7.60
2019-04-29T16:52:10.561Z,7.34
2019-04-29T16:55:19.351Z,7.41
2019-04-29T16:58:28.059Z,7.38
2019-04-29T17:01:36.707Z,7.48
2019-04-29T17:04:44.252Z,7.41
2019-04-29T17:07:51.842Z,7.28
2019-04-29T17:11:12.072Z,7.42
2019-04-29T17:14:20.931Z,7.25
2019-04-29T17:17:29.587Z,7.16
2019-04-29T17:20:37.955Z,7.14
2019-04-29T17:23:46.110Z,7.07
2019-04-29T17:27:19.474Z,7.38
2019-04-29T17:30:48.599Z,7.23
2019-04-29T17:34:29.386Z,7.17
2019-04-29T17:37:27.227Z,7.23
2019-04-29T17:40:35.540Z,7.07
2019-04-29T17:44:09.898Z,7.07
2019-04-29T17:47:49.133Z,6.93
2019-04-29T17:51:02.515Z,7.04
2019-04-29T17:54:12.319Z,6.86
2019-04-29T17:57:39.606Z,7.01
2019-04-29T18:01:05.469Z,6.91
2019-04-29T18:04:33.193Z,6.98
2019-04-29T18:07:55.331Z,6.89
2019-04-29T18:11:07.840Z,6.83
2019-04-29T18:14:14.983Z,6.75
2019-04-29T18:17:31.193Z,6.80
2019-04-29T18:21:21.565Z,6.86
2019-04-29T18:24:55.525Z,6.88
2019-04-29T18:28:05.088Z,6.75
2019-04-29T18:31:14.179Z,6.82
2019-04-29T18:34:22.291Z,6.77
2019-04-29T18:37:30.470Z,6.80
2019-04-29T18:40:41.878Z,6.80
2019-04-29T18:43:49.873Z,6.76
2019-04-29T18:46:57.515Z,6.74
2019-04-29T18:50:05.395Z,6.81
2019-04-29T18:53:15.469Z,6.79
2019-04-29T18:56:23.590Z,6.71
2019-04-29T18:59:33.237Z,6.70
2019-04-29T19:02:47.812Z,6.69
2019-04-29T19:05:55.168Z,6.75
2019-04-29T19:09:17.216Z,6.69
2019-04-29T19:12:15.641Z,6.71
2019-04-29T19:15:25.506Z,6.66
2019-04-29T19:18:33.069Z,6.70
2019-04-29T19:21:41.351Z,6.65
2019-04-29T19:24:49.823Z,6.53
2019-04-29T19:28:11.831Z,6.61
2019-04-29T19:31:11.545Z,6.61
2019-04-29T19:34:19.340Z,6.55
2019-04-29T19:37:32.507Z,6.52
2019-04-29T19:40:42.529Z,6.49
2019-04-29T19:43:54.996Z,6.45
2019-04-29T19:46:59.874Z,6.45
2019-04-29T19:50:10.441Z,6.57
2019-04-29T19:53:18.257Z,6.59
2019-04-29T19:56:27.079Z,6.58
2019-04-29T19:59:36.786Z,6.47
2019-04-29T20:02:48.230Z,6.41
2019-04-29T20:06:08.180Z,6.48
2019-04-29T20:09:17.068Z,6.41
2019-04-29T20:12:29.735Z,6.43
2019-04-29T20:15:49.611Z,6.42
2019-04-29T20:19:21.663Z,6.43
2019-04-29T20:22:29.970Z,6.37
2019-04-29T20:25:38.782Z,6.42
2019-04-29T20:28:46.595Z,6.46
2019-04-29T20:31:56.620Z,6.32
2019-04-29T20:35:08.346Z,6.53
2019-04-29T20:38:15.783Z,6.33
2019-04-29T20:41:40.390Z,6.27
2019-04-29T20:44:36.582Z,6.36
2019-04-29T20:47:45.514Z,6.48
2019-04-29T20:50:54.662Z,6.32
2019-04-29T20:54:18.845Z,6.25
2019-04-29T20:57:25.102Z,6.22
2019-04-29T21:00:35.238Z,6.26
2019-04-29T21:03:46.252Z,6.39
2019-04-29T21:07:00.297Z,6.26
2019-04-29T21:10:06.745Z,6.24
2019-04-29T21:13:22.508Z,6.15
2019-04-29T21:16:35.711Z,6.16
2019-04-29T21:19:43.462Z,6.30
2019-04-29T21:22:52.524Z,6.28
2019-04-29T21:26:05.320Z,6.30
2019-04-29T21:29:15.799Z,6.41
2019-04-29T21:32:20.386Z,6.28
2019-04-29T21:35:41.945Z,6.33
2019-04-29T21:39:07.598Z,6.30
2019-04-29T21:42:28.062Z,6.23
2019-04-29T21:45:35.544Z,6.31
2019-04-29T21:48:43.347Z,6.43
2019-04-29T21:51:51.032Z,6.40
2019-04-29T21:54:58.831Z,6.20
2019-04-29T21:58:06.526Z,6.28
2019-04-29T22:01:15.318Z,6.24
2019-04-29T22:04:22.796Z,6.20
2019-04-29T22:07:30.894Z,6.18
2019-04-29T22:10:38.315Z,6.28
2019-04-29T22:13:45.602Z,6.18
2019-04-29T22:16:56.884Z,6.26
2019-04-29T22:20:07.723Z,6.12
2019-04-29T22:23:17.281Z,6.15
2019-04-29T22:26:26.884Z,6.23
2019-04-29T22:29:37.319Z,6.27
2019-04-29T22:32:46.836Z,6.23
2019-04-29T22:35:55.493Z,6.27
2019-04-29T22:39:06.194Z,6.29
2019-04-29T22:42:32.979Z,6.31
2019-04-29T22:45:40.840Z,6.29
2019-04-29T22:48:48.863Z,6.21
2019-04-29T22:51:57.242Z,6.24
2019-04-29T22:55:05.620Z,6.33
2019-04-29T22:58:14.975Z,6.36
2019-04-29T23:01:22.257Z,6.19
2019-04-29T23:04:30.066Z,6.37
2019-04-29T23:07:38.759Z,6.30
2019-04-29T23:10:46.075Z,6.04
2019-04-29T23:13:55.312Z,6.04
2019-04-29T23:17:06.143Z,6.05
2019-04-29T23:20:36.422Z,6.28
2019-04-29T23:23:48.056Z,6.15
2019-04-29T23:26:56.024Z,6.04
2019-04-29T23:30:05.523Z,6.04
2019-04-29T23:33:15.065Z,5.93
2019-04-29T23:36:25.606Z,6.02
2019-04-29T23:39:34.811Z,6.05
2019-04-29T23:42:47.487Z,5.90
2019-04-29T23:45:56.936Z,5.97
2019-04-29T23:49:04.654Z,5.88
2019-04-29T23:52:17.861Z,5.94
2019-04-29T23:55:29.238Z,5.97
2019-04-29T23:58:46.968Z,5.96
